Time;durP1;ratioP1;P1;durP2;ratioP2;P2;SDS_P1;SDS_P2;PMS_P1;PMS_P2;Temp;Humidity;BMP_temperature;BMP_pressure;BME280_temperature;BME280_humidity;BME280_pressure;Samples;Min_cycle;Max_cycle;Signal;HPM_P1;HPM_P2
2021/10/24 00:02:21;;;;;;;21.27;4.18;;;12.90;58.20;;;;;;6209077;28;20049;-76
2021/10/24 00:05:23;;;;;;;8.20;3.83;;;12.90;58.90;;;;;;6223051;28;20044;-77
2021/10/24 00:08:24;;;;;;;7.97;3.88;;;12.90;58.40;;;;;;6208012;28;20368;-77
2021/10/24 00:11:25;;;;;;;7.43;3.72;;;12.80;58.50;;;;;;6226027;28;20116;-76
2021/10/24 00:14:27;;;;;;;7.60;4.05;;;12.80;58.60;;;;;;6198464;28;20084;-76
2021/10/24 00:17:28;;;;;;;8.55;4.03;;;12.80;58.70;;;;;;6235873;28;20126;-76
2021/10/24 00:20:29;;;;;;;12.40;3.95;;;12.70;58.90;;;;;;6224894;28;20459;-77
2021/10/24 00:23:30;;;;;;;11.25;3.95;;;12.70;58.80;;;;;;6219308;28;20045;-77
2021/10/24 00:26:32;;;;;;;6.50;3.45;;;12.70;58.90;;;;;;6224230;28;20629;-76
2021/10/24 00:29:33;;;;;;;9.20;3.72;;;12.70;58.90;;;;;;6223513;28;20109;-76
2021/10/24 00:32:34;;;;;;;6.18;3.22;;;12.70;58.80;;;;;;6223763;28;20478;-77
2021/10/24 00:35:35;;;;;;;8.75;3.78;;;12.70;58.70;;;;;;6207126;28;20037;-75
2021/10/24 00:38:36;;;;;;;6.93;3.70;;;12.70;58.70;;;;;;6221777;28;20042;-76
2021/10/24 00:41:38;;;;;;;13.05;4.18;;;12.70;59.20;;;;;;6223549;28;20473;-76
2021/10/24 00:44:39;;;;;;;11.48;3.95;;;12.80;58.70;;;;;;6222410;28;20042;-77
2021/10/24 00:47:40;;;;;;;8.73;4.47;;;12.70;58.60;;;;;;6206637;28;20038;-76
2021/10/24 00:50:42;;;;;;;9.77;4.35;;;12.80;58.80;;;;;;6224224;28;20053;-75
2021/10/24 00:53:43;;;;;;;5.53;3.17;;;12.70;58.70;;;;;;6222633;28;20465;-76
2021/10/24 00:56:45;;;;;;;9.45;3.63;;;12.70;58.80;;;;;;6239649;28;20041;-76
2021/10/24 00:59:46;;;;;;;6.05;3.08;;;12.70;58.80;;;;;;6222799;28;20046;-76
2021/10/24 01:02:47;;;;;;;7.00;3.60;;;12.70;58.80;;;;;;6207081;28;20038;-76
2021/10/24 01:05:49;;;;;;;8.90;3.97;;;12.60;58.80;;;;;;6222100;28;20049;-75
2021/10/24 01:08:50;;;;;;;14.88;3.90;;;12.60;58.80;;;;;;6222307;28;20112;-75
2021/10/24 01:11:52;;;;;;;4.90;2.92;;;12.60;58.80;;;;;;6205306;28;20499;-76
2021/10/24 01:14:53;;;;;;;6.95;3.17;;;12.50;58.90;;;;;;6221111;28;20034;-76
2021/10/24 01:17:55;;;;;;;7.68;3.22;;;12.50;59.00;;;;;;6217690;28;20053;-76
2021/10/24 01:20:57;;;;;;;9.38;3.78;;;12.40;59.60;;;;;;6205754;28;20120;-76
2021/10/24 01:23:58;;;;;;;9.10;3.20;;;12.40;59.10;;;;;;6221560;28;20034;-77
2021/10/24 01:26:59;;;;;;;10.75;3.90;;;12.30;59.30;;;;;;6221566;28;20034;-76
2021/10/24 01:30:02;;;;;;;7.15;3.10;;;12.30;59.30;;;;;;6238664;28;20064;-76
2021/10/24 01:33:03;;;;;;;7.88;3.83;;;12.30;59.40;;;;;;6221616;28;20053;-76
2021/10/24 01:36:09;;;;;;;8.70;4.32;;;12.20;59.50;;;;;;6237913;28;20454;-76
2021/10/24 01:39:10;;;;;;;8.75;4.15;;;12.20;59.60;;;;;;6220611;28;20081;-76
2021/10/24 01:42:13;;;;;;;8.10;3.42;;;12.20;59.60;;;;;;6214851;28;20038;-76
2021/10/24 01:45:14;;;;;;;9.38;4.40;;;12.10;59.70;;;;;;6205540;28;20041;-76
2021/10/24 01:48:16;;;;;;;8.85;4.40;;;12.10;59.90;;;;;;6205031;28;20034;-76
2021/10/24 01:51:17;;;;;;;8.43;3.78;;;12.00;59.90;;;;;;6220468;28;20046;-76
2021/10/24 01:54:20;;;;;;;7.40;4.00;;;12.00;60.00;;;;;;6223396;28;20056;-76
2021/10/24 01:57:21;;;;;;;8.57;3.72;;;12.00;60.10;;;;;;6220972;28;20414;-76
2021/10/24 02:00:23;;;;;;;10.15;3.90;;;11.90;60.10;;;;;;6217670;28;20065;-76
2021/10/24 02:03:27;;;;;;;11.98;3.75;;;11.90;60.20;;;;;;6219147;28;20495;-76
2021/10/24 02:06:50;;;;;;;7.90;4.10;;;11.90;60.30;;;;;;6211773;28;20458;-76
2021/10/24 02:09:53;;;;;;;8.98;4.40;;;11.90;60.50;;;;;;6230389;28;20510;-76
2021/10/24 02:12:55;;;;;;;9.30;3.78;;;11.80;60.60;;;;;;6241249;28;20052;-76
2021/10/24 02:15:59;;;;;;;9.73;3.97;;;11.80;60.70;;;;;;6215598;28;20029;-76
2021/10/24 02:19:00;;;;;;;7.55;3.17;;;11.70;60.90;;;;;;6222601;28;20529;-76
2021/10/24 02:22:03;;;;;;;7.47;3.55;;;11.70;61.00;;;;;;6221857;28;20034;-76
2021/10/24 02:25:06;;;;;;;10.77;4.03;;;11.60;61.00;;;;;;6221314;28;20037;-77
2021/10/24 02:28:08;;;;;;;7.70;3.63;;;11.60;61.90;;;;;;6220509;28;20044;-76
2021/10/24 02:31:09;;;;;;;10.10;4.20;;;11.50;61.20;;;;;;6217522;28;20479;-76
2021/10/24 02:34:33;;;;;;;8.20;3.72;;;11.50;61.30;;;;;;6210384;28;20041;-76
2021/10/24 02:37:53;;;;;;;9.77;3.88;;;11.40;61.50;;;;;;6222039;28;20038;-76
2021/10/24 02:40:54;;;;;;;5.05;3.00;;;11.40;61.60;;;;;;6204354;28;20375;-76
2021/10/24 02:43:56;;;;;;;9.57;4.18;;;11.40;61.70;;;;;;6220273;28;20154;-76
2021/10/24 02:46:58;;;;;;;7.20;3.53;;;11.40;61.70;;;;;;6228565;28;20037;-76
2021/10/24 02:49:59;;;;;;;9.18;4.47;;;11.40;61.70;;;;;;6228142;28;20064;-77
2021/10/24 02:53:00;;;;;;;7.28;3.30;;;11.40;61.60;;;;;;6228572;28;20042;-77
2021/10/24 02:56:01;;;;;;;9.50;3.92;;;11.40;61.70;;;;;;6228821;28;20046;-77
2021/10/24 02:59:04;;;;;;;8.32;3.70;;;11.40;61.80;;;;;;6243905;28;20046;-77
2021/10/24 03:02:06;;;;;;;7.63;3.70;;;11.30;61.80;;;;;;6229777;28;20100;-78
2021/10/24 03:05:09;;;;;;;7.40;3.88;;;11.30;61.90;;;;;;6244777;28;20138;-77
2021/10/24 03:08:11;;;;;;;11.23;3.83;;;11.30;62.00;;;;;;6216784;28;20042;-77
2021/10/24 03:11:12;;;;;;;6.60;3.45;;;11.30;62.00;;;;;;6228143;28;20041;-76
2021/10/24 03:14:13;;;;;;;12.35;3.97;;;11.30;62.00;;;;;;6228885;28;20466;-76
2021/10/24 03:17:15;;;;;;;5.05;2.63;;;11.30;61.90;;;;;;6228424;28;20219;-76
2021/10/24 03:20:17;;;;;;;5.18;3.08;;;11.30;61.90;;;;;;6228347;28;20124;-75
2021/10/24 03:23:18;;;;;;;7.10;3.70;;;11.30;61.90;;;;;;6243538;28;20034;-76
2021/10/24 03:26:19;;;;;;;8.07;3.83;;;11.30;61.90;;;;;;6228597;28;20474;-75
2021/10/24 03:29:20;;;;;;;10.02;3.38;;;11.30;61.90;;;;;;6228052;28;20167;-75
2021/10/24 03:32:21;;;;;;;6.38;3.80;;;11.20;61.90;;;;;;6228716;28;20104;-76
2021/10/24 03:35:23;;;;;;;7.93;3.40;;;11.20;62.00;;;;;;6227418;28;20041;-75
2021/10/24 03:38:24;;;;;;;5.85;3.17;;;11.20;62.00;;;;;;6211048;28;20108;-76
2021/10/24 03:41:27;;;;;;;9.40;3.20;;;11.20;62.10;;;;;;6212096;28;20049;-76
2021/10/24 03:44:28;;;;;;;10.25;3.22;;;11.20;62.10;;;;;;6210130;28;20038;-77
2021/10/24 03:47:29;;;;;;;10.63;3.83;;;11.10;62.10;;;;;;6227674;28;20545;-76
2021/10/24 03:50:30;;;;;;;6.70;3.20;;;11.10;62.20;;;;;;6225214;28;20041;-75
2021/10/24 03:53:32;;;;;;;8.77;2.92;;;11.10;62.30;;;;;;6227784;28;20433;-76
2021/10/24 03:56:32;;;;;;;8.23;2.95;;;11.10;62.30;;;;;;6226170;28;20030;-76
2021/10/24 03:59:34;;;;;;;7.63;3.30;;;11.10;62.40;;;;;;6225774;28;20542;-76
2021/10/24 04:02:57;;;;;;;9.73;3.10;;;11.10;62.50;;;;;;6226251;28;20045;-76
2021/10/24 04:06:05;;;;;;;6.20;3.22;;;11.10;62.50;;;;;;6219206;28;20041;-76
2021/10/24 04:09:06;;;;;;;11.10;3.75;;;11.10;62.60;;;;;;6206094;28;20061;-76
2021/10/24 04:12:09;;;;;;;8.80;3.72;;;11.10;62.70;;;;;;6239312;28;20542;-76
2021/10/24 04:15:11;;;;;;;6.07;3.13;;;11.00;62.80;;;;;;6237622;28;20034;-76
2021/10/24 04:18:12;;;;;;;6.35;3.50;;;11.00;62.90;;;;;;6222029;28;20344;-77
2021/10/24 04:21:16;;;;;;;10.70;3.95;;;10.90;62.90;;;;;;6237414;28;20034;-76
2021/10/24 04:24:17;;;;;;;6.63;3.05;;;11.00;62.90;;;;;;6222055;28;22724;-76
2021/10/24 04:27:19;;;;;;;7.88;3.03;;;10.90;62.80;;;;;;6222204;28;20058;-76
2021/10/24 04:30:21;;;;;;;12.73;3.65;;;10.90;62.80;;;;;;6228961;28;20037;-76
2021/10/24 04:33:22;;;;;;;6.18;3.00;;;10.90;62.90;;;;;;6232460;28;20045;-76
2021/10/24 04:36:23;;;;;;;5.90;3.05;;;10.90;63.10;;;;;;6218221;28;20113;-77
2021/10/24 04:39:24;;;;;;;6.90;3.80;;;10.90;63.10;;;;;;6221239;28;20046;-76
2021/10/24 04:42:25;;;;;;;6.30;3.15;;;10.90;63.30;;;;;;6223806;28;20061;-76
2021/10/24 04:45:27;;;;;;;7.78;3.20;;;10.80;63.30;;;;;;6222188;28;20034;-76
2021/10/24 04:48:27;;;;;;;6.68;3.08;;;10.80;64.20;;;;;;6237677;28;20127;-78
2021/10/24 04:51:30;;;;;;;13.45;3.78;;;10.80;63.40;;;;;;6221331;28;20073;-76
2021/10/24 04:54:31;;;;;;;7.20;3.40;;;10.80;63.40;;;;;;6221356;28;20038;-76
2021/10/24 04:57:33;;;;;;;7.05;2.78;;;10.80;63.50;;;;;;6221520;28;20054;-75
2021/10/24 05:00:37;;;;;;;6.22;3.10;;;10.80;63.50;;;;;;6236897;28;20368;-76
2021/10/24 05:03:38;;;;;;;9.75;3.15;;;10.80;63.60;;;;;;6220636;28;20034;-76
2021/10/24 05:06:39;;;;;;;5.97;2.85;;;10.70;63.50;;;;;;6237828;28;20045;-75
2021/10/24 05:09:41;;;;;;;11.80;3.63;;;10.70;63.60;;;;;;6221068;28;20482;-76
2021/10/24 05:12:42;;;;;;;13.10;4.60;;;10.70;63.80;;;;;;6219585;28;20038;-76
2021/10/24 05:15:43;;;;;;;8.02;3.13;;;10.70;64.70;;;;;;6221044;28;20069;-76
2021/10/24 05:18:45;;;;;;;11.45;4.05;;;10.70;63.90;;;;;;6220401;28;20042;-76
2021/10/24 05:21:48;;;;;;;6.22;3.60;;;10.70;63.80;;;;;;6220484;28;20127;-76
2021/10/24 05:24:49;;;;;;;7.55;3.47;;;10.70;63.90;;;;;;6236690;28;20038;-76
2021/10/24 05:27:54;;;;;;;10.38;3.40;;;10.70;63.90;;;;;;6219320;28;20045;-76
2021/10/24 05:30:55;;;;;;;8.45;3.45;;;10.60;63.80;;;;;;6220996;28;20093;-76
2021/10/24 05:33:56;;;;;;;11.60;3.60;;;10.70;64.00;;;;;;6234498;28;20044;-76
2021/10/24 05:37:00;;;;;;;12.48;3.22;;;10.70;64.00;;;;;;6218531;28;20037;-76
2021/10/24 05:40:01;;;;;;;10.77;3.85;;;10.70;63.90;;;;;;6217677;28;20041;-75
2021/10/24 05:43:17;;;;;;;6.35;3.38;;;10.70;63.90;;;;;;6227219;28;20481;-76
2021/10/24 05:46:19;;;;;;;6.70;3.38;;;10.70;63.80;;;;;;6219562;28;20085;-76
2021/10/24 05:49:21;;;;;;;6.60;3.00;;;10.60;63.80;;;;;;6197076;28;20165;-76
2021/10/24 05:52:25;;;;;;;9.43;3.50;;;10.70;63.90;;;;;;6221385;28;20395;-75
2021/10/24 05:55:27;;;;;;;7.28;3.60;;;10.60;63.80;;;;;;6221485;28;20033;-76
2021/10/24 05:58:27;;;;;;;6.97;3.20;;;10.60;63.80;;;;;;6220863;28;20125;-76
2021/10/24 06:01:57;;;;;;;10.10;3.72;;;10.60;63.80;;;;;;6210617;28;20048;-76
2021/10/24 06:05:18;;;;;;;16.45;4.38;;;10.50;63.90;;;;;;6212961;28;20430;-75
2021/10/24 06:08:23;;;;;;;10.57;4.13;;;10.50;63.90;;;;;;6209449;28;20049;-77
2021/10/24 06:11:32;;;;;;;7.57;3.97;;;10.50;63.90;;;;;;6218544;28;20045;-76
2021/10/24 06:14:34;;;;;;;9.82;4.30;;;10.50;63.90;;;;;;6209571;28;20041;-76
2021/10/24 06:17:36;;;;;;;10.20;3.50;;;10.50;63.90;;;;;;6216301;28;20073;-76
2021/10/24 06:20:38;;;;;;;7.50;3.83;;;10.50;64.00;;;;;;6232864;28;20124;-76
2021/10/24 06:23:39;;;;;;;11.77;3.42;;;10.50;64.00;;;;;;6215739;28;20061;-77
2021/10/24 06:26:45;;;;;;;9.65;3.15;;;10.50;63.90;;;;;;6202023;28;20112;-77
2021/10/24 06:29:47;;;;;;;7.43;3.33;;;10.50;63.90;;;;;;6217190;28;20048;-76
2021/10/24 06:32:54;;;;;;;5.80;3.57;;;10.50;63.90;;;;;;6202986;28;20041;-76
2021/10/24 06:36:14;;;;;;;6.07;3.00;;;10.50;64.00;;;;;;6218872;28;20264;-76
2021/10/24 06:39:33;;;;;;;6.25;3.25;;;10.40;63.90;;;;;;6216554;28;20125;-76
2021/10/24 06:42:38;;;;;;;8.60;3.75;;;10.40;64.10;;;;;;6217516;28;20486;-76
2021/10/24 06:45:57;;;;;;;9.50;3.72;;;10.40;64.30;;;;;;6219759;28;20033;-75
2021/10/24 06:49:17;;;;;;;11.18;3.92;;;10.30;64.30;;;;;;6217072;28;20038;-77
2021/10/24 06:52:20;;;;;;;9.30;3.38;;;10.40;64.40;;;;;;6216579;28;20088;-76
2021/10/24 06:55:42;;;;;;;7.63;3.72;;;10.30;64.30;;;;;;6204388;28;20049;-76
2021/10/24 06:58:46;;;;;;;9.90;3.80;;;10.40;64.30;;;;;;6218820;28;20041;-76
2021/10/24 07:02:20;;;;;;;7.95;4.05;;;10.40;64.30;;;;;;6191568;28;20034;-76
2021/10/24 07:05:41;;;;;;;12.23;3.55;;;10.30;64.30;;;;;;6190386;28;20042;-76
2021/10/24 07:08:46;;;;;;;7.75;3.97;;;10.40;64.40;;;;;;6142788;28;20045;-76
2021/10/24 07:11:48;;;;;;;6.53;3.28;;;10.30;64.30;;;;;;6176099;28;20030;-77
2021/10/24 07:14:50;;;;;;;7.30;3.45;;;10.30;64.30;;;;;;6191950;28;20034;-77
2021/10/24 07:17:51;;;;;;;9.50;3.80;;;10.30;64.20;;;;;;6192092;28;20048;-77
2021/10/24 07:20:52;;;;;;;8.60;3.58;;;10.30;64.40;;;;;;6159905;28;20443;-77
2021/10/24 07:23:53;;;;;;;11.27;3.50;;;10.30;64.50;;;;;;6189431;28;20101;-77
2021/10/24 07:26:56;;;;;;;7.85;4.38;;;10.40;64.60;;;;;;6196472;28;20045;-76
2021/10/24 07:29:57;;;;;;;9.40;3.15;;;10.40;64.50;;;;;;6163230;28;20558;-76
2021/10/24 07:32:59;;;;;;;5.88;3.22;;;10.50;64.60;;;;;;6182907;28;20046;-76
2021/10/24 07:36:09;;;;;;;6.63;3.72;;;10.50;64.60;;;;;;6197387;28;20034;-76
2021/10/24 07:39:10;;;;;;;6.85;3.38;;;10.70;65.40;;;;;;6195158;28;20057;-76
2021/10/24 07:42:11;;;;;;;7.20;3.25;;;10.70;64.40;;;;;;6238344;28;20060;-78
2021/10/24 07:45:14;;;;;;;5.82;3.28;;;10.80;64.30;;;;;;6220490;28;20064;-75
2021/10/24 07:48:17;;;;;;;7.03;3.88;;;10.90;64.20;;;;;;6205818;28;20038;-78
2021/10/24 07:51:20;;;;;;;13.10;4.65;;;11.00;64.20;;;;;;6220811;28;20033;-76
2021/10/24 07:54:22;;;;;;;6.18;3.75;;;11.10;64.00;;;;;;6222917;28;20069;-76
2021/10/24 07:57:24;;;;;;;6.57;3.58;;;11.20;63.80;;;;;;6221637;28;20057;-76
2021/10/24 08:00:28;;;;;;;6.90;4.03;;;11.30;63.50;;;;;;6221961;28;20030;-76
2021/10/24 08:03:29;;;;;;;9.40;4.18;;;11.40;63.40;;;;;;6220123;28;20117;-76
2021/10/24 08:06:36;;;;;;;15.90;4.00;;;11.40;63.20;;;;;;6221357;28;20037;-76
2021/10/24 08:09:37;;;;;;;10.15;3.75;;;11.50;63.00;;;;;;6239626;28;20121;-77
2021/10/24 08:12:40;;;;;;;9.05;3.90;;;11.60;62.90;;;;;;6204070;28;20125;-76
2021/10/24 08:15:42;;;;;;;9.30;4.50;;;11.70;62.80;;;;;;6221353;28;20041;-77
2021/10/24 08:18:44;;;;;;;7.05;3.90;;;11.80;62.60;;;;;;6206025;28;20048;-76
2021/10/24 08:22:04;;;;;;;5.65;2.83;;;11.90;62.60;;;;;;6216514;28;20129;-76
2021/10/24 08:25:10;;;;;;;7.22;3.35;;;12.00;62.20;;;;;;6206240;28;20041;-77
2021/10/24 08:28:12;;;;;;;8.57;3.78;;;12.10;61.80;;;;;;6221874;28;20057;-77
2021/10/24 08:31:33;;;;;;;6.20;3.90;;;12.20;61.60;;;;;;6223503;28;20057;-76
2021/10/24 08:34:34;;;;;;;7.28;3.92;;;12.40;61.60;;;;;;6220279;28;20159;-77
2021/10/24 08:37:36;;;;;;;7.22;3.65;;;12.50;61.40;;;;;;6217642;28;20038;-75
2021/10/24 08:40:43;;;;;;;7.28;3.17;;;12.60;61.10;;;;;;6231782;28;20145;-77
2021/10/24 08:43:45;;;;;;;8.70;3.50;;;12.80;60.90;;;;;;6220717;28;20085;-77
2021/10/24 08:46:47;;;;;;;8.20;3.45;;;13.00;60.60;;;;;;6225768;28;20037;-77
2021/10/24 08:49:48;;;;;;;16.50;4.10;;;13.10;60.10;;;;;;6228431;28;20627;-77
2021/10/24 08:52:52;;;;;;;7.65;3.83;;;13.20;59.70;;;;;;6205857;28;20030;-77
2021/10/24 08:55:54;;;;;;;9.25;4.22;;;13.30;59.70;;;;;;6223324;28;20027;-76
2021/10/24 08:58:56;;;;;;;10.40;4.57;;;13.40;59.50;;;;;;6228597;28;20030;-77
2021/10/24 09:01:57;;;;;;;6.82;3.60;;;13.50;59.20;;;;;;6220548;28;20044;-76
2021/10/24 09:05:00;;;;;;;6.47;3.92;;;13.60;58.90;;;;;;6226534;28;20030;-76
2021/10/24 09:08:02;;;;;;;5.07;3.25;;;13.70;58.70;;;;;;6226580;28;20041;-77
2021/10/24 09:11:03;;;;;;;6.38;3.53;;;13.70;58.40;;;;;;6225065;28;20049;-76
2021/10/24 09:14:04;;;;;;;7.10;3.47;;;13.80;58.20;;;;;;6222536;28;20069;-77
2021/10/24 09:17:07;;;;;;;9.70;4.82;;;13.80;58.20;;;;;;6215324;28;20103;-77
2021/10/24 09:20:09;;;;;;;6.28;3.35;;;13.80;57.90;;;;;;6220745;28;20037;-77
2021/10/24 09:23:14;;;;;;;7.50;3.65;;;13.90;57.90;;;;;;6205794;28;20049;-76
2021/10/24 09:26:20;;;;;;;5.43;3.25;;;13.90;57.70;;;;;;6235130;28;20033;-77
2021/10/24 09:29:22;;;;;;;11.05;3.63;;;14.00;57.50;;;;;;6221885;28;20030;-77
2021/10/24 09:32:46;;;;;;;6.03;3.05;;;14.10;57.50;;;;;;6219487;28;20049;-76
2021/10/24 09:35:50;;;;;;;6.95;3.60;;;14.20;57.40;;;;;;6222627;28;20454;-77
2021/10/24 09:39:10;;;;;;;7.30;3.50;;;14.20;57.20;;;;;;6219044;28;20053;-78
2021/10/24 09:42:18;;;;;;;11.02;3.72;;;14.30;57.10;;;;;;6221983;28;20037;-77
2021/10/24 09:45:19;;;;;;;9.88;5.05;;;14.50;57.20;;;;;;6219040;28;20041;-77
2021/10/24 09:48:21;;;;;;;13.25;3.65;;;14.60;57.00;;;;;;6219506;28;20475;-78
2021/10/24 09:51:33;;;;;;;13.15;3.97;;;14.70;56.50;;;;;;6225854;28;20034;-77
2021/10/24 09:54:47;;;;;;;11.55;6.53;;;14.90;56.20;;;;;;6218357;28;20046;-77
2021/10/24 09:57:50;;;;;;;12.10;4.30;;;15.00;55.90;;;;;;6213287;28;20042;-77
2021/10/24 10:00:51;;;;;;;9.73;4.30;;;15.20;55.60;;;;;;6218276;28;20333;-77
2021/10/24 10:03:52;;;;;;;8.25;3.88;;;15.50;54.90;;;;;;6222049;28;20034;-76
2021/10/24 10:06:53;;;;;;;8.07;4.00;;;15.80;54.20;;;;;;6219556;28;20049;-76
2021/10/24 10:09:55;;;;;;;8.75;4.35;;;16.10;53.40;;;;;;6211922;28;20079;-76
2021/10/24 10:13:01;;;;;;;7.13;2.92;;;16.40;52.90;;;;;;6200904;28;20030;-77
2021/10/24 10:16:08;;;;;;;22.63;9.82;;;16.60;52.40;;;;;;6218004;28;20034;-77
2021/10/24 10:19:11;;;;;;;24.10;12.33;;;16.80;51.70;;;;;;6218609;28;20116;-77
2021/10/24 10:22:21;;;;;;;21.85;9.75;;;16.90;50.80;;;;;;6220208;28;20045;-77
2021/10/24 10:25:30;;;;;;;8.63;4.38;;;17.00;50.80;;;;;;6221341;28;20025;-77
2021/10/24 10:28:47;;;;;;;18.08;8.27;;;17.20;50.40;;;;;;6215808;28;20496;-76
2021/10/24 10:32:15;;;;;;;27.08;9.50;;;17.40;49.70;;;;;;6222426;28;20057;-77
2021/10/24 10:35:18;;;;;;;8.32;3.88;;;17.70;49.40;;;;;;6228235;28;20042;-77
2021/10/24 10:38:48;;;;;;;7.15;3.90;;;17.90;48.60;;;;;;6242268;28;20042;-76
2021/10/24 10:41:49;;;;;;;6.40;2.80;;;18.10;48.60;;;;;;6153492;28;20062;-77
2021/10/24 10:45:16;;;;;;;8.57;2.88;;;18.40;48.50;;;;;;6168263;28;20041;-76
2021/10/24 10:48:25;;;;;;;8.73;4.15;;;18.60;48.10;;;;;;6067992;29;20056;-77
2021/10/24 10:51:27;;;;;;;7.25;3.90;;;18.90;47.00;;;;;;6071764;29;20064;-77
2021/10/24 10:54:55;;;;;;;18.75;8.18;;;19.20;46.80;;;;;;6072382;29;20063;-77
2021/10/24 10:58:33;;;;;;;10.32;3.67;;;19.40;46.30;;;;;;6080373;29;20482;-78
2021/10/24 11:01:41;;;;;;;15.20;6.60;;;19.60;45.40;;;;;;6084959;29;20044;-77
2021/10/24 11:04:49;;;;;;;18.03;8.00;;;19.90;45.10;;;;;;6077311;29;20123;-77
2021/10/24 11:07:51;;;;;;;6.28;3.50;;;20.20;44.30;;;;;;6072376;29;20485;-76
2021/10/24 11:10:52;;;;;;;10.90;3.38;;;20.50;43.70;;;;;;6059546;29;20082;-76
2021/10/24 11:13:53;;;;;;;24.00;11.02;;;20.90;42.80;;;;;;6075599;29;20043;-77
2021/10/24 11:16:57;;;;;;;10.25;5.15;;;21.20;42.00;;;;;;6078332;29;20040;-77
2021/10/24 11:20:11;;;;;;;11.63;3.72;;;21.70;41.30;;;;;;6099764;29;20038;-77
2021/10/24 11:23:15;;;;;;;12.75;7.18;;;22.20;40.70;;;;;;6100501;29;20084;-77
2021/10/24 11:26:17;;;;;;;17.88;5.30;;;22.70;39.00;;;;;;6224762;28;20034;-77
2021/10/24 11:29:18;;;;;;;5.90;2.97;;;23.00;38.70;;;;;;6222885;28;20103;-78
2021/10/24 11:32:34;;;;;;;12.32;4.35;;;23.50;37.40;;;;;;6222179;28;20046;-78
2021/10/24 11:35:38;;;;;;;10.68;6.00;;;23.70;36.70;;;;;;6223194;28;20037;-78
2021/10/24 11:38:40;;;;;;;8.55;4.40;;;23.90;36.20;;;;;;6238119;28;20046;-77
2021/10/24 11:41:41;;;;;;;4.80;2.20;;;24.20;35.50;;;;;;6225173;28;20060;-78
2021/10/24 11:44:44;;;;;;;6.57;2.50;;;24.60;35.00;;;;;;6222860;28;20044;-77
2021/10/24 11:48:15;;;;;;;6.00;1.95;;;25.00;33.90;;;;;;6222782;28;20470;-77
2021/10/24 11:51:16;;;;;;;6.18;3.00;;;25.20;33.80;;;;;;6216700;28;20156;-77
2021/10/24 11:54:18;;;;;;;4.80;2.78;;;25.60;33.40;;;;;;6222869;28;20038;-78
2021/10/24 11:57:34;;;;;;;8.88;3.03;;;25.90;33.20;;;;;;6200130;28;20037;-77
2021/10/24 12:00:54;;;;;;;5.88;2.97;;;26.00;31.90;;;;;;6223029;28;20034;-78
2021/10/24 12:04:00;;;;;;;3.45;2.13;;;26.20;31.50;;;;;;6222513;28;20117;-77
2021/10/24 12:07:07;;;;;;;2.90;2.00;;;26.30;31.70;;;;;;6235491;28;20037;-78
2021/10/24 12:10:09;;;;;;;4.45;2.38;;;26.30;31.80;;;;;;6223966;28;20048;-78
2021/10/24 12:13:48;;;;;;;4.57;2.80;;;26.60;31.40;;;;;;6220780;28;20040;-77
2021/10/24 12:16:50;;;;;;;;;;;26.90;31.00;;;;;;6194996;28;20038;-78
2021/10/24 12:20:06;;;;;;;10.32;2.90;;;27.20;30.40;;;;;;6175999;28;19914;-78
2021/10/24 12:23:16;;;;;;;9.52;3.50;;;27.00;30.10;;;;;;6177426;28;20716;-77
2021/10/24 12:26:35;;;;;;;4.68;2.40;;;26.40;31.00;;;;;;6176032;28;20092;-78
2021/10/24 12:29:37;;;;;;;6.68;2.58;;;25.70;31.70;;;;;;6189737;28;20042;-79
2021/10/24 12:33:02;;;;;;;3.85;2.30;;;25.10;32.50;;;;;;6195366;28;20043;-79
2021/10/24 12:36:08;;;;;;;4.30;2.17;;;24.40;33.30;;;;;;6192771;28;20049;-77
2021/10/24 12:39:22;;;;;;;4.45;2.25;;;23.70;34.10;;;;;;6193173;28;20439;-77
2021/10/24 12:42:23;;;;;;;4.53;2.28;;;23.00;35.30;;;;;;6192825;28;20042;-76
2021/10/24 12:45:23;;;;;;;3.63;2.00;;;22.50;36.20;;;;;;6177078;28;20034;-78
2021/10/24 12:48:46;;;;;;;8.27;2.30;;;22.20;37.00;;;;;;6217149;28;20482;-77
2021/10/24 12:51:50;;;;;;;2.97;2.08;;;21.90;37.60;;;;;;6215144;28;20057;-77
2021/10/24 12:54:59;;;;;;;4.05;2.13;;;21.60;38.10;;;;;;6219427;28;20026;-77
2021/10/24 12:58:01;;;;;;;6.35;2.67;;;21.40;38.60;;;;;;6213417;28;20540;-78
2021/10/24 13:01:02;;;;;;;10.02;2.80;;;21.30;38.90;;;;;;6220901;28;20075;-77
2021/10/24 13:04:04;;;;;;;4.18;2.00;;;21.10;39.20;;;;;;6219501;28;20038;-78
2021/10/24 13:07:06;;;;;;;5.47;2.13;;;21.00;39.60;;;;;;6222424;28;20053;-79
2021/10/24 13:10:07;;;;;;;5.07;1.95;;;20.90;39.80;;;;;;6224603;28;20470;-77
2021/10/24 13:13:08;;;;;;;3.15;1.95;;;20.80;40.10;;;;;;6220406;28;20109;-76
2021/10/24 13:16:10;;;;;;;7.38;1.98;;;20.70;40.40;;;;;;6220465;28;20125;-76
2021/10/24 13:19:11;;;;;;;3.80;2.05;;;20.60;40.60;;;;;;6221330;28;20442;-76
2021/10/24 13:25:31;;;;;;;3.92;1.92;;;20.40;40.80;;;;;;6220234;28;20098;-77
2021/10/24 13:28:32;;;;;;;5.50;1.92;;;20.30;41.00;;;;;;6219066;28;20054;-77
2021/10/24 13:31:34;;;;;;;5.30;1.98;;;20.30;41.10;;;;;;6218560;28;20463;-77
2021/10/24 13:34:35;;;;;;;3.40;2.08;;;20.30;41.20;;;;;;6219971;28;20030;-77
2021/10/24 13:37:36;;;;;;;7.32;2.00;;;20.30;41.10;;;;;;6218626;28;20046;-77
2021/10/24 13:40:37;;;;;;;4.20;2.08;;;20.30;41.20;;;;;;6193384;28;20085;-77
2021/10/24 13:43:38;;;;;;;8.90;3.17;;;20.30;41.30;;;;;;6234976;28;20033;-77
2021/10/24 13:46:39;;;;;;;3.92;1.63;;;20.40;41.30;;;;;;6218908;28;20041;-77
2021/10/24 13:49:40;;;;;;;4.88;1.80;;;20.40;41.30;;;;;;6235243;28;20073;-76
2021/10/24 13:52:41;;;;;;;6.90;2.13;;;20.30;41.30;;;;;;6234795;28;20057;-76
2021/10/24 13:55:42;;;;;;;4.07;2.20;;;20.30;41.30;;;;;;6219246;28;20045;-76
2021/10/24 13:58:43;;;;;;;6.15;2.15;;;20.30;41.40;;;;;;6225243;28;20125;-76
2021/10/24 14:01:44;;;;;;;3.80;2.08;;;20.30;41.50;;;;;;6235166;28;20056;-76
2021/10/24 14:04:45;;;;;;;4.63;1.90;;;20.30;41.50;;;;;;6216820;28;20073;-76
2021/10/24 14:07:46;;;;;;;4.40;2.03;;;20.30;41.50;;;;;;6216964;28;20505;-76
2021/10/24 14:10:50;;;;;;;3.65;1.73;;;20.40;41.50;;;;;;6218923;28;20034;-76
2021/10/24 14:13:51;;;;;;;4.38;1.92;;;20.40;41.50;;;;;;6220578;28;20038;-78
2021/10/24 14:16:52;;;;;;;2.85;1.95;;;20.40;41.50;;;;;;6220304;28;20037;-77
2021/10/24 14:19:53;;;;;;;2.58;1.58;;;20.30;41.30;;;;;;6235460;28;20030;-77
2021/10/24 14:22:53;;;;;;;3.22;1.65;;;20.40;41.40;;;;;;6218863;28;20525;-77
2021/10/24 14:25:55;;;;;;;3.40;1.70;;;20.30;41.30;;;;;;6220660;28;20029;-77
2021/10/24 14:28:58;;;;;;;3.90;2.30;;;20.30;41.30;;;;;;6218646;28;20038;-76
2021/10/24 14:31:59;;;;;;;2.22;1.40;;;20.30;41.30;;;;;;6236447;28;20045;-77
2021/10/24 14:35:00;;;;;;;4.72;1.85;;;20.30;41.30;;;;;;6220675;28;20030;-77
2021/10/24 14:38:02;;;;;;;3.13;1.67;;;20.30;41.20;;;;;;6219898;28;20044;-76
2021/10/24 14:41:12;;;;;;;4.82;1.95;;;20.30;41.30;;;;;;6232728;28;20538;-77
2021/10/24 14:44:13;;;;;;;4.28;1.90;;;20.30;41.30;;;;;;6219130;28;20034;-76
2021/10/24 14:47:14;;;;;;;4.25;1.65;;;20.30;41.90;;;;;;6218875;28;20104;-77
2021/10/24 14:50:15;;;;;;;3.13;1.88;;;20.30;41.40;;;;;;6200291;28;20121;-77
2021/10/24 14:53:17;;;;;;;6.72;2.22;;;20.30;41.40;;;;;;6218181;28;20141;-77
2021/10/24 14:56:17;;;;;;;4.18;2.35;;;20.30;41.30;;;;;;6220843;28;20053;-77
2021/10/24 14:59:19;;;;;;;6.68;3.20;;;20.30;41.30;;;;;;6219814;28;20042;-77
2021/10/24 15:02:20;;;;;;;18.27;6.68;;;20.30;41.30;;;;;;6220895;28;20048;-77
2021/10/24 15:05:27;;;;;;;6.15;3.13;;;20.30;41.30;;;;;;6216235;28;20479;-76
2021/10/24 15:08:28;;;;;;;4.13;1.95;;;20.30;41.20;;;;;;6219270;28;20037;-78
2021/10/24 15:11:29;;;;;;;6.10;2.35;;;20.30;41.20;;;;;;6220262;28;20034;-77
2021/10/24 15:14:31;;;;;;;3.70;1.52;;;20.30;41.70;;;;;;6217956;28;20038;-77
2021/10/24 15:17:42;;;;;;;4.47;1.58;;;20.30;41.10;;;;;;6201153;28;20029;-77
2021/10/24 15:24:02;;;;;;;1.85;1.48;;;20.30;41.50;;;;;;6220214;28;20053;-77
2021/10/24 15:27:03;;;;;;;5.05;1.60;;;20.20;40.90;;;;;;6218450;28;20088;-77
2021/10/24 15:30:05;;;;;;;2.50;1.67;;;20.20;40.80;;;;;;6235091;28;20459;-76
2021/10/24 15:33:06;;;;;;;6.13;2.38;;;20.20;40.70;;;;;;6218246;28;20038;-77
2021/10/24 15:36:06;;;;;;;2.10;1.40;;;20.20;40.80;;;;;;6194239;28;20358;-76
2021/10/24 15:39:07;;;;;;;3.80;1.48;;;20.20;40.80;;;;;;6218585;28;20046;-76
2021/10/24 15:42:11;;;;;;;8.15;3.42;;;20.20;40.80;;;;;;6218239;28;20046;-77
2021/10/24 15:45:12;;;;;;;6.05;1.85;;;20.10;40.80;;;;;;6218395;28;20064;-77
2021/10/24 15:48:18;;;;;;;8.30;3.60;;;20.10;40.80;;;;;;6219461;28;20038;-77
2021/10/24 15:51:20;;;;;;;6.93;2.90;;;20.10;40.90;;;;;;6218826;28;20112;-78
2021/10/24 15:54:21;;;;;;;5.03;2.22;;;20.10;41.00;;;;;;6221497;28;20129;-77
2021/10/24 15:57:23;;;;;;;6.07;1.88;;;20.00;41.00;;;;;;6238777;28;20042;-76
2021/10/24 16:00:24;;;;;;;3.03;1.70;;;20.00;41.10;;;;;;6223562;28;20045;-78
2021/10/24 16:03:26;;;;;;;7.57;2.35;;;20.00;41.20;;;;;;6224278;28;20076;-78
2021/10/24 16:06:27;;;;;;;4.18;2.00;;;19.90;41.20;;;;;;6220942;28;20379;-78